Time;durP1;ratioP1;P1;durP2;ratioP2;P2;SDS_P1;SDS_P2;PMS_P1;PMS_P2;Temp;Humidity;BMP_temperature;BMP_pressure;BME280_temperature;BME280_humidity;BME280_pressure;Samples;Min_cycle;Max_cycle;Signal;HPM_P1;HPM_P2
2023/08/03 00:02:17;;;;;;;5.07;0.85;;;19.30;99.90;;;;;;5014837;28;20026;-66
2023/08/03 00:04:43;;;;;;;2.53;0.95;;;19.20;99.90;;;;;;5015021;28;20035;-66
2023/08/03 00:07:08;;;;;;;9.50;0.80;;;19.20;99.90;;;;;;5014777;28;20060;-66
2023/08/03 00:09:33;;;;;;;4.68;1.02;;;19.10;99.90;;;;;;5014880;28;20033;-66
2023/08/03 00:11:59;;;;;;;2.20;0.90;;;19.10;99.90;;;;;;5014730;28;20113;-66
2023/08/03 00:14:25;;;;;;;4.40;0.75;;;19.10;99.90;;;;;;5015087;28;20026;-66
2023/08/03 00:16:50;;;;;;;6.18;1.35;;;19.10;99.90;;;;;;5014819;28;20031;-66
2023/08/03 00:19:16;;;;;;;3.13;0.68;;;19.10;99.90;;;;;;4998198;28;20022;-66
2023/08/03 00:21:41;;;;;;;2.38;0.68;;;19.10;99.90;;;;;;5014672;28;20121;-66
2023/08/03 00:24:07;;;;;;;7.97;1.08;;;19.10;99.90;;;;;;5014540;28;20029;-66
2023/08/03 00:26:33;;;;;;;2.92;0.75;;;19.10;99.90;;;;;;4999094;28;20038;-66
2023/08/03 00:28:59;;;;;;;8.13;1.33;;;19.10;99.90;;;;;;4999272;28;20034;-66
2023/08/03 00:31:24;;;;;;;6.93;1.27;;;19.10;99.90;;;;;;4999251;28;20022;-66
2023/08/03 00:33:50;;;;;;;3.75;0.90;;;19.10;99.90;;;;;;5014384;28;20026;-66
2023/08/03 00:36:15;;;;;;;2.45;0.73;;;19.00;99.90;;;;;;5014370;28;20018;-66
2023/08/03 00:38:41;;;;;;;4.32;0.88;;;18.90;99.90;;;;;;4998687;28;20096;-66
2023/08/03 00:41:06;;;;;;;7.07;1.00;;;18.90;99.90;;;;;;5014300;28;20117;-66
2023/08/03 00:43:32;;;;;;;2.20;0.88;;;18.90;99.90;;;;;;4998783;28;20031;-66
2023/08/03 00:45:57;;;;;;;6.32;1.02;;;18.80;99.90;;;;;;4998219;28;20026;-66
2023/08/03 00:48:23;;;;;;;3.13;0.75;;;18.90;99.90;;;;;;5014391;28;20029;-66
2023/08/03 00:50:48;;;;;;;4.65;1.33;;;18.80;99.90;;;;;;4998501;28;20089;-66
2023/08/03 00:53:14;;;;;;;4.78;0.77;;;18.70;99.90;;;;;;4998552;28;20027;-66
2023/08/03 00:55:40;;;;;;;6.20;0.68;;;18.70;99.90;;;;;;4997667;28;20018;-66
2023/08/03 00:58:05;;;;;;;6.68;0.90;;;18.60;99.90;;;;;;5014023;28;20091;-66
2023/08/03 01:00:31;;;;;;;8.32;0.98;;;18.40;99.90;;;;;;4998264;28;20022;-66
2023/08/03 01:02:57;;;;;;;2.42;0.57;;;18.30;99.90;;;;;;5014433;28;20030;-66
2023/08/03 01:05:22;;;;;;;2.17;0.70;;;18.30;99.90;;;;;;5014997;28;20038;-66
2023/08/03 01:07:48;;;;;;;6.50;1.00;;;18.30;99.90;;;;;;5013682;28;20026;-66
2023/08/03 01:10:13;;;;;;;5.93;0.77;;;18.40;99.90;;;;;;4997369;28;20026;-66
2023/08/03 01:12:39;;;;;;;5.15;0.80;;;18.50;99.90;;;;;;5013565;28;20061;-66
2023/08/03 01:15:06;;;;;;;10.52;1.10;;;18.40;99.90;;;;;;5014076;28;20026;-66
2023/08/03 01:17:31;;;;;;;3.42;0.68;;;18.40;99.90;;;;;;5013610;28;20057;-66
2023/08/03 01:19:57;;;;;;;4.45;0.70;;;18.40;99.90;;;;;;4998101;28;20109;-66
2023/08/03 01:22:22;;;;;;;1.95;0.55;;;18.30;99.90;;;;;;5013591;28;20102;-66
2023/08/03 01:24:48;;;;;;;4.93;1.48;;;18.30;99.90;;;;;;5013435;28;20026;-66
2023/08/03 01:27:13;;;;;;;4.95;1.05;;;18.20;99.90;;;;;;5014371;28;20026;-66
2023/08/03 01:29:39;;;;;;;2.22;0.50;;;18.10;99.90;;;;;;4998186;28;20110;-66
2023/08/03 01:32:05;;;;;;;2.22;0.43;;;18.10;99.90;;;;;;5013861;28;20025;-66
2023/08/03 01:34:31;;;;;;;5.55;0.80;;;18.10;99.90;;;;;;5013438;28;20073;-66
2023/08/03 01:36:57;;;;;;;5.78;0.80;;;18.10;99.90;;;;;;5013231;28;20022;-66
2023/08/03 01:39:27;;;;;;;4.93;0.63;;;18.10;99.90;;;;;;5013863;28;20023;-66
2023/08/03 01:41:52;;;;;;;7.75;0.55;;;18.10;99.90;;;;;;5013558;28;20053;-66
2023/08/03 01:44:26;;;;;;;4.40;0.60;;;18.10;99.90;;;;;;5013627;28;20037;-66
2023/08/03 01:46:54;;;;;;;3.47;0.50;;;18.20;99.90;;;;;;4996926;28;20030;-66
2023/08/03 01:49:21;;;;;;;8.70;0.85;;;18.20;99.90;;;;;;5013430;28;20030;-66
2023/08/03 01:51:47;;;;;;;5.30;0.70;;;18.20;99.90;;;;;;5013130;28;20026;-66
2023/08/03 01:54:13;;;;;;;1.73;0.55;;;18.20;99.90;;;;;;4997758;28;20019;-66
2023/08/03 01:56:39;;;;;;;6.32;0.63;;;18.20;99.90;;;;;;4997583;28;20053;-66
2023/08/03 01:59:05;;;;;;;1.17;0.40;;;18.30;99.90;;;;;;5013340;28;20069;-66
2023/08/03 02:01:30;;;;;;;2.13;0.55;;;18.40;99.90;;;;;;5013730;28;20157;-66
2023/08/03 02:03:56;;;;;;;1.90;0.40;;;18.40;99.90;;;;;;5012980;28;20029;-66
2023/08/03 02:06:21;;;;;;;3.20;0.47;;;18.50;99.90;;;;;;5013223;28;20022;-66
2023/08/03 02:08:47;;;;;;;5.38;0.43;;;18.50;99.90;;;;;;5012896;28;20026;-66
2023/08/03 02:11:12;;;;;;;3.45;0.88;;;18.60;99.90;;;;;;5017094;28;20026;-66
2023/08/03 02:13:38;;;;;;;2.72;0.75;;;18.70;99.90;;;;;;5016973;28;20026;-66
2023/08/03 02:16:08;;;;;;;6.03;0.80;;;18.70;99.90;;;;;;5017855;28;20022;-67
2023/08/03 02:18:34;;;;;;;2.15;0.50;;;18.70;99.90;;;;;;5001686;28;20026;-66
2023/08/03 02:20:59;;;;;;;2.38;0.52;;;18.80;99.90;;;;;;5001223;28;20050;-66
2023/08/03 02:23:25;;;;;;;4.78;0.80;;;18.70;99.90;;;;;;5000489;28;20120;-66
2023/08/03 02:25:51;;;;;;;2.78;0.50;;;18.70;99.90;;;;;;5017793;28;20080;-66
2023/08/03 02:28:17;;;;;;;2.30;0.50;;;18.80;99.90;;;;;;5016703;28;20117;-66
2023/08/03 02:30:42;;;;;;;3.03;0.52;;;18.80;99.90;;;;;;5017150;28;20064;-66
2023/08/03 02:33:08;;;;;;;3.38;0.73;;;18.80;99.90;;;;;;5001224;28;20023;-66
2023/08/03 02:35:37;;;;;;;2.85;0.60;;;18.80;99.90;;;;;;5001168;28;20030;-66
2023/08/03 02:38:03;;;;;;;4.82;0.60;;;18.80;99.90;;;;;;5001044;28;20029;-66
2023/08/03 02:40:29;;;;;;;1.30;0.50;;;18.70;99.90;;;;;;5001088;28;20023;-66
2023/08/03 02:42:54;;;;;;;3.00;0.47;;;18.60;99.90;;;;;;5016852;28;20030;-66
2023/08/03 02:45:20;;;;;;;1.88;0.43;;;18.60;99.90;;;;;;5016468;28;20120;-66
2023/08/03 02:47:45;;;;;;;5.50;0.60;;;18.60;99.90;;;;;;5000959;28;20037;-66
2023/08/03 02:50:11;;;;;;;2.33;0.57;;;18.50;99.90;;;;;;5000830;28;20061;-66
2023/08/03 02:52:36;;;;;;;8.27;0.70;;;18.40;99.90;;;;;;5017037;28;20030;-66
2023/08/03 02:55:02;;;;;;;3.45;0.60;;;18.40;99.90;;;;;;5016563;28;20023;-66
2023/08/03 02:57:27;;;;;;;3.53;0.55;;;18.40;99.90;;;;;;5000648;28;20077;-66
2023/08/03 02:59:53;;;;;;;1.42;0.45;;;18.40;99.90;;;;;;5016399;28;20022;-66
2023/08/03 03:02:18;;;;;;;6.63;0.90;;;18.40;99.90;;;;;;5016200;28;20029;-66
2023/08/03 03:04:44;;;;;;;4.25;0.93;;;18.40;99.90;;;;;;5016031;28;20034;-66
2023/08/03 03:07:09;;;;;;;3.85;0.38;;;18.40;99.90;;;;;;5015989;28;20038;-66
2023/08/03 03:09:35;;;;;;;0.68;0.22;;;18.30;99.90;;;;;;5015896;28;20018;-66
2023/08/03 03:12:00;;;;;;;1.55;0.60;;;18.20;99.90;;;;;;5017060;28;20026;-66
2023/08/03 03:14:26;;;;;;;0.80;0.45;;;18.30;99.90;;;;;;4999483;28;20037;-66
2023/08/03 03:16:51;;;;;;;2.55;0.50;;;18.30;99.90;;;;;;5000583;28;20049;-66
2023/08/03 03:19:17;;;;;;;1.80;0.40;;;18.40;99.90;;;;;;5015785;28;20022;-66
2023/08/03 03:21:42;;;;;;;2.05;0.57;;;18.40;99.90;;;;;;5014768;28;20023;-66
2023/08/03 03:24:08;;;;;;;3.50;0.55;;;18.40;99.90;;;;;;5016166;28;20073;-66
2023/08/03 03:26:34;;;;;;;1.98;0.43;;;18.40;99.90;;;;;;5015616;28;20073;-66
2023/08/03 03:29:00;;;;;;;1.27;0.40;;;18.40;99.90;;;;;;5000169;28;20038;-66
2023/08/03 03:31:25;;;;;;;1.40;0.40;;;18.30;99.90;;;;;;5000161;28;20026;-66
2023/08/03 03:33:51;;;;;;;0.55;0.30;;;18.40;99.90;;;;;;5015601;28;20042;-66
2023/08/03 03:36:16;;;;;;;3.50;0.52;;;18.30;99.90;;;;;;5015554;28;20045;-66
2023/08/03 03:38:42;;;;;;;1.55;0.25;;;18.30;99.90;;;;;;5015445;28;20022;-66
2023/08/03 03:41:07;;;;;;;1.45;0.32;;;18.30;99.90;;;;;;4999074;28;20030;-66
2023/08/03 03:43:33;;;;;;;2.95;0.63;;;18.20;99.90;;;;;;4999405;28;20031;-66
2023/08/03 03:45:58;;;;;;;3.50;0.30;;;18.10;99.90;;;;;;5000165;28;20026;-66
2023/08/03 03:48:24;;;;;;;1.05;0.30;;;18.00;99.90;;;;;;5016463;28;20022;-66
2023/08/03 03:50:50;;;;;;;3.58;0.30;;;18.00;99.90;;;;;;5015028;28;20138;-66
2023/08/03 03:53:15;;;;;;;1.55;0.30;;;18.00;99.90;;;;;;5015649;28;20022;-66
2023/08/03 03:55:41;;;;;;;1.85;0.43;;;18.00;99.90;;;;;;5015543;28;20038;-66
2023/08/03 03:58:06;;;;;;;3.83;0.60;;;17.90;99.90;;;;;;5015095;28;20018;-66
2023/08/03 04:00:37;;;;;;;1.35;0.20;;;17.90;99.90;;;;;;4998591;28;20090;-66
2023/08/03 04:03:03;;;;;;;1.98;0.40;;;17.80;99.90;;;;;;5015061;28;20022;-66
2023/08/03 04:05:29;;;;;;;5.53;0.95;;;17.80;99.90;;;;;;5014977;28;20035;-66
2023/08/03 04:07:54;;;;;;;1.00;0.30;;;17.80;99.90;;;;;;4999518;28;20038;-66
2023/08/03 04:10:20;;;;;;;0.65;0.28;;;17.80;99.90;;;;;;4999323;28;20038;-66
2023/08/03 04:12:46;;;;;;;2.03;0.30;;;17.70;99.90;;;;;;5014772;28;20026;-66
2023/08/03 04:15:11;;;;;;;1.80;0.20;;;17.70;99.90;;;;;;5014667;28;20032;-66
2023/08/03 04:17:38;;;;;;;1.58;0.40;;;17.70;99.90;;;;;;5014781;28;20027;-66
2023/08/03 04:20:05;;;;;;;1.10;0.20;;;17.70;99.90;;;;;;4999367;28;20030;-66
2023/08/03 04:22:30;;;;;;;1.13;0.80;;;17.60;99.90;;;;;;5015323;28;20026;-66
2023/08/03 04:24:56;;;;;;;0.28;0.28;;;17.60;99.90;;;;;;4999273;28;20089;-66
2023/08/03 04:27:21;;;;;;;1.35;0.20;;;17.70;99.90;;;;;;5014476;28;20027;-66
2023/08/03 04:29:47;;;;;;;0.45;0.40;;;17.70;99.90;;;;;;4998235;28;20033;-66
2023/08/03 04:32:12;;;;;;;1.13;0.55;;;17.60;99.90;;;;;;4999297;28;20034;-66
2023/08/03 04:34:38;;;;;;;2.20;0.30;;;17.50;99.90;;;;;;5014326;28;20026;-66
2023/08/03 04:37:03;;;;;;;1.38;0.40;;;17.40;99.90;;;;;;5014515;28;20065;-66
2023/08/03 04:39:29;;;;;;;5.07;0.60;;;17.40;99.90;;;;;;4998712;28;20185;-66
2023/08/03 04:41:54;;;;;;;0.25;0.20;;;17.40;99.90;;;;;;4999090;28;20150;-66
2023/08/03 04:44:20;;;;;;;2.03;0.43;;;17.40;99.90;;;;;;5014812;28;20031;-66
2023/08/03 04:46:45;;;;;;;0.47;0.20;;;17.40;99.90;;;;;;5014745;28;20030;-66
2023/08/03 04:49:13;;;;;;;1.85;0.40;;;17.40;99.90;;;;;;5014157;28;20022;-66
2023/08/03 04:51:38;;;;;;;0.80;0.38;;;17.40;99.90;;;;;;5014298;28;20027;-66
2023/08/03 04:54:04;;;;;;;0.38;0.30;;;17.40;99.90;;;;;;5014071;28;20038;-66
2023/08/03 04:56:29;;;;;;;1.65;0.77;;;17.50;99.90;;;;;;5014016;28;20033;-66
2023/08/03 04:58:55;;;;;;;0.13;0.10;;;17.50;99.90;;;;;;5013905;28;20026;-66
2023/08/03 05:01:20;;;;;;;0.50;0.40;;;17.50;99.90;;;;;;4998484;28;20077;-66
2023/08/03 05:03:46;;;;;;;1.83;0.30;;;17.50;99.90;;;;;;5013835;28;20031;-66
2023/08/03 05:06:12;;;;;;;0.38;0.20;;;17.60;99.90;;;;;;5014680;28;20026;-66
2023/08/03 05:08:37;;;;;;;1.25;0.38;;;17.60;99.90;;;;;;5013783;28;20030;-66
2023/08/03 05:11:03;;;;;;;2.05;0.25;;;17.70;99.90;;;;;;5013794;28;20053;-66
2023/08/03 05:13:28;;;;;;;2.58;0.40;;;17.70;99.90;;;;;;5013961;28;20018;-66
2023/08/03 05:15:54;;;;;;;3.95;0.50;;;17.70;99.90;;;;;;5013700;28;20026;-66
2023/08/03 05:18:19;;;;;;;5.05;0.45;;;17.70;99.90;;;;;;5013777;28;20023;-66
2023/08/03 05:20:45;;;;;;;1.02;0.30;;;17.70;99.90;;;;;;5013901;28;20109;-66
2023/08/03 05:23:12;;;;;;;2.30;0.28;;;17.80;99.90;;;;;;5013427;28;20116;-66
2023/08/03 05:25:38;;;;;;;1.00;0.10;;;17.70;99.90;;;;;;4998423;28;20050;-66
2023/08/03 05:28:04;;;;;;;2.50;0.35;;;17.70;99.90;;;;;;4997368;28;20031;-66
2023/08/03 05:30:29;;;;;;;2.40;0.47;;;17.60;99.90;;;;;;5013618;28;20031;-66
2023/08/03 05:32:55;;;;;;;2.55;0.30;;;17.60;99.90;;;;;;5013410;28;20022;-66
2023/08/03 05:35:21;;;;;;;1.23;0.30;;;17.60;99.90;;;;;;5013627;28;20033;-66
2023/08/03 05:37:46;;;;;;;0.47;0.22;;;17.60;99.90;;;;;;4996898;28;20029;-66
2023/08/03 05:40:12;;;;;;;2.83;0.45;;;17.60;99.90;;;;;;4997842;28;20112;-66
2023/08/03 05:42:40;;;;;;;2.40;0.30;;;17.50;99.90;;;;;;5013340;28;20014;-66
2023/08/03 05:45:14;;;;;;;1.42;0.38;;;17.20;99.90;;;;;;4997270;28;20023;-66
2023/08/03 05:47:40;;;;;;;0.70;0.20;;;17.00;99.90;;;;;;5013140;28;20030;-66
2023/08/03 05:50:13;;;;;;;1.25;0.40;;;16.80;99.90;;;;;;4997731;28;20106;-66
2023/08/03 05:52:39;;;;;;;1.15;0.30;;;16.70;99.90;;;;;;5013847;28;20026;-66
2023/08/03 05:55:05;;;;;;;1.80;0.30;;;16.70;99.90;;;;;;5013146;28;20022;-66
2023/08/03 05:57:30;;;;;;;0.60;0.30;;;16.70;99.90;;;;;;5013037;28;20027;-66
2023/08/03 05:59:56;;;;;;;1.15;0.55;;;16.70;99.90;;;;;;4997575;28;20033;-66
2023/08/03 06:02:35;;;;;;;1.17;0.40;;;16.70;99.90;;;;;;5013850;28;20030;-66
2023/08/03 06:05:01;;;;;;;1.42;0.30;;;16.70;99.90;;;;;;4996889;28;20030;-66
2023/08/03 06:07:26;;;;;;;0.40;0.20;;;16.70;99.90;;;;;;5012969;28;20018;-66
2023/08/03 06:09:52;;;;;;;1.92;0.55;;;16.70;99.90;;;;;;5013890;28;20018;-66
2023/08/03 06:12:18;;;;;;;2.08;0.50;;;16.80;99.90;;;;;;4997603;28;20022;-66
2023/08/03 06:14:44;;;;;;;1.02;0.50;;;16.80;99.90;;;;;;5013144;28;20042;-66
2023/08/03 06:17:12;;;;;;;2.22;0.30;;;16.80;99.90;;;;;;4997619;28;20034;-66
2023/08/03 06:19:38;;;;;;;0.40;0.35;;;16.90;99.90;;;;;;5013453;28;20077;-66
2023/08/03 06:22:12;;;;;;;1.70;0.30;;;17.00;99.90;;;;;;4996478;28;20015;-66
2023/08/03 06:24:37;;;;;;;0.85;0.40;;;17.00;99.90;;;;;;4997188;28;20026;-66
2023/08/03 06:27:03;;;;;;;1.88;0.47;;;17.10;99.90;;;;;;4997429;28;20106;-66
2023/08/03 06:29:28;;;;;;;0.50;0.40;;;17.10;99.90;;;;;;5012631;28;20022;-66
2023/08/03 06:31:54;;;;;;;1.83;0.40;;;17.10;99.90;;;;;;4997431;28;20022;-66
2023/08/03 06:34:19;;;;;;;1.27;0.30;;;17.20;99.90;;;;;;5012664;28;20033;-66
2023/08/03 06:36:45;;;;;;;0.68;0.32;;;17.20;99.90;;;;;;4997320;28;20019;-66
2023/08/03 06:39:10;;;;;;;0.77;0.22;;;17.30;99.90;;;;;;4997463;28;20022;-66
2023/08/03 06:41:36;;;;;;;1.38;0.45;;;17.30;99.90;;;;;;4996260;28;20022;-66
2023/08/03 06:44:02;;;;;;;0.50;0.30;;;17.30;99.90;;;;;;5012594;28;20026;-66
2023/08/03 06:46:27;;;;;;;0.40;0.30;;;17.30;99.90;;;;;;5012918;28;20026;-66
2023/08/03 06:48:54;;;;;;;1.27;0.40;;;17.30;99.90;;;;;;5013178;28;20057;-66
2023/08/03 06:51:20;;;;;;;0.80;0.40;;;17.30;99.90;;;;;;5013039;28;20049;-66
2023/08/03 06:53:49;;;;;;;3.60;0.50;;;17.40;99.90;;;;;;4997003;28;20026;-66
2023/08/03 06:56:14;;;;;;;1.20;0.40;;;17.40;99.90;;;;;;4997617;28;20019;-66
2023/08/03 06:58:40;;;;;;;2.03;0.95;;;17.50;99.90;;;;;;5001226;28;20085;-66
2023/08/03 07:01:05;;;;;;;1.90;0.40;;;17.50;99.90;;;;;;5000909;28;20096;-66
2023/08/03 07:03:32;;;;;;;2.03;0.38;;;17.50;99.90;;;;;;5001044;28;20029;-66
2023/08/03 07:05:58;;;;;;;1.80;0.30;;;17.60;99.90;;;;;;5016350;28;20022;-66
2023/08/03 07:08:24;;;;;;;2.78;0.40;;;17.60;99.90;;;;;;5016113;28;20038;-66
2023/08/03 07:10:49;;;;;;;0.40;0.30;;;17.60;99.90;;;;;;5000549;28;20034;-64
2023/08/03 07:13:15;;;;;;;0.75;0.40;;;17.60;99.90;;;;;;5016221;28;20034;-64
2023/08/03 07:15:40;;;;;;;1.02;0.40;;;17.70;99.90;;;;;;5016310;28;20089;-64
2023/08/03 07:18:06;;;;;;;2.33;0.30;;;17.70;99.90;;;;;;5016722;28;20042;-64
2023/08/03 07:20:34;;;;;;;0.70;0.20;;;17.60;99.90;;;;;;5015568;28;20034;-64
2023/08/03 07:22:59;;;;;;;3.40;0.60;;;17.70;99.90;;;;;;5000421;28;20040;-64
2023/08/03 07:25:26;;;;;;;4.03;0.63;;;17.70;99.90;;;;;;5000281;28;20086;-65
2023/08/03 07:27:52;;;;;;;1.05;0.30;;;17.70;99.90;;;;;;5015792;28;20038;-66
2023/08/03 07:30:18;;;;;;;1.13;0.30;;;17.70;99.90;;;;;;5000677;28;20054;-66
2023/08/03 07:32:44;;;;;;;1.40;0.60;;;17.70;99.90;;;;;;5016280;28;20033;-66
2023/08/03 07:35:09;;;;;;;1.95;0.70;;;17.70;99.90;;;;;;5000440;28;20035;-66
2023/08/03 07:37:35;;;;;;;2.35;0.80;;;17.80;99.90;;;;;;5015504;28;20030;-66
2023/08/03 07:40:01;;;;;;;1.55;0.50;;;17.90;99.90;;;;;;5015390;28;20026;-66
2023/08/03 07:42:27;;;;;;;3.35;0.50;;;17.90;99.90;;;;;;5015823;28;20068;-66
2023/08/03 07:44:53;;;;;;;2.45;0.55;;;18.00;99.90;;;;;;5015482;28;20026;-66
2023/08/03 07:47:19;;;;;;;3.38;0.38;;;18.00;99.90;;;;;;5000255;28;20044;-66
2023/08/03 07:49:45;;;;;;;0.75;0.30;;;18.00;99.90;;;;;;5015366;28;20112;-65
2023/08/03 07:52:10;;;;;;;1.77;0.57;;;18.00;99.90;;;;;;5015293;28;20021;-66
2023/08/03 07:54:36;;;;;;;0.50;0.20;;;18.00;99.90;;;;;;4999080;28;20034;-66
2023/08/03 07:57:02;;;;;;;2.92;0.30;;;18.00;99.90;;;;;;5000117;28;20029;-66
2023/08/03 07:59:27;;;;;;;1.70;0.20;;;18.10;99.90;;;;;;5014975;28;20023;-66
2023/08/03 08:01:53;;;;;;;2.67;0.45;;;18.10;99.90;;;;;;5015461;28;20018;-66
2023/08/03 08:04:18;;;;;;;0.82;0.22;;;18.20;99.90;;;;;;5015086;28;20056;-66
2023/08/03 08:06:45;;;;;;;1.75;0.35;;;18.30;99.90;;;;;;5014872;28;20027;-66
2023/08/03 08:09:10;;;;;;;0.80;0.30;;;18.30;99.90;;;;;;4998991;28;20030;-66
2023/08/03 08:11:36;;;;;;;1.77;0.30;;;18.30;99.90;;;;;;5014869;28;20033;-66
2023/08/03 08:14:01;;;;;;;0.20;0.10;;;18.40;99.90;;;;;;5015258;28;20023;-66
2023/08/03 08:16:27;;;;;;;1.23;0.30;;;18.40;99.90;;;;;;5015806;28;20117;-66
2023/08/03 08:18:53;;;;;;;8.15;0.68;;;18.50;99.90;;;;;;4999195;28;20030;-66
2023/08/03 08:21:18;;;;;;;1.02;0.30;;;18.50;99.90;;;;;;5014708;28;20072;-66
2023/08/03 08:23:44;;;;;;;1.95;0.10;;;18.60;99.90;;;;;;4998726;28;20026;-66
2023/08/03 08:26:10;;;;;;;0.30;0.10;;;18.60;99.90;;;;;;5014815;28;20026;-66
2023/08/03 08:28:36;;;;;;;1.45;0.20;;;18.60;99.90;;;;;;5014767;28;20041;-66
2023/08/03 08:31:02;;;;;;;0.30;0.30;;;18.60;99.90;;;;;;5014444;28;20022;-66
2023/08/03 08:33:27;;;;;;;1.85;0.20;;;18.60;99.90;;;;;;4999000;28;20026;-66
2023/08/03 08:35:53;;;;;;;2.42;0.30;;;18.60;99.90;;;;;;4999364;28;20019;-66
2023/08/03 08:38:18;;;;;;;0.32;0.17;;;18.60;99.90;;;;;;4998912;28;20038;-66
2023/08/03 08:40:47;;;;;;;0.50;0.13;;;18.70;99.90;;;;;;5014838;28;20133;-66
2023/08/03 08:43:13;;;;;;;0.00;0.00;;;18.80;99.90;;;;;;4997965;28;20058;-66
2023/08/03 08:45:39;;;;;;;0.52;0.35;;;18.80;99.90;;;;;;5014332;28;20041;-66
2023/08/03 08:48:05;;;;;;;1.38;0.10;;;18.80;99.90;;;;;;5014484;28;20138;-66
2023/08/03 08:50:32;;;;;;;0.30;0.30;;;18.90;99.90;;;;;;5014125;28;20057;-66
2023/08/03 08:52:58;;;;;;;1.20;0.20;;;18.90;99.90;;;;;;5014092;28;20022;-66
2023/08/03 08:55:28;;;;;;;3.78;0.15;;;19.00;99.90;;;;;;5014743;28;20058;-66
2023/08/03 08:57:55;;;;;;;1.45;0.30;;;19.00;99.90;;;;;;5014030;28;20023;-66
2023/08/03 09:00:23;;;;;;;0.32;0.17;;;19.10;99.90;;;;;;5013919;28;20030;-66
2023/08/03 09:02:52;;;;;;;0.20;0.10;;;19.10;99.90;;;;;;5014126;28;20030;-66
2023/08/03 09:05:24;;;;;;;0.52;0.13;;;19.00;99.90;;;;;;5013980;28;20026;-66
2023/08/03 09:08:02;;;;;;;0.10;0.10;;;19.10;99.90;;;;;;4998215;28;20026;-66
2023/08/03 09:10:29;;;;;;;0.43;0.05;;;19.10;99.90;;;;;;4998349;28;20034;-66
2023/08/03 09:12:54;;;;;;;0.47;0.38;;;19.20;99.90;;;;;;5013638;28;20026;-66
2023/08/03 09:15:40;;;;;;;1.50;0.25;;;19.20;99.90;;;;;;5013800;28;20022;-66
2023/08/03 09:18:06;;;;;;;0.20;0.20;;;19.20;99.90;;;;;;5013729;28;20022;-66
2023/08/03 09:20:33;;;;;;;1.52;0.20;;;19.20;99.90;;;;;;4997637;28;20038;-66
2023/08/03 09:23:00;;;;;;;0.40;0.10;;;19.20;99.90;;;;;;5013617;28;20117;-66
2023/08/03 09:25:25;;;;;;;1.15;0.20;;;19.30;99.90;;;;;;5013727;28;20029;-66
2023/08/03 09:27:54;;;;;;;0.47;0.10;;;19.30;99.90;;;;;;4997273;28;20070;-66
2023/08/03 09:30:21;;;;;;;4.85;0.30;;;19.30;99.90;;;;;;5013447;28;20030;-66
2023/08/03 09:32:47;;;;;;;0.40;0.20;;;19.40;99.90;;;;;;4998027;28;20022;-67
2023/08/03 09:35:23;;;;;;;1.27;0.20;;;19.40;99.90;;;;;;4997951;28;20037;-66
2023/08/03 09:37:51;;;;;;;1.05;0.22;;;19.40;99.90;;;;;;4997857;28;20030;-66
2023/08/03 09:40:19;;;;;;;1.02;0.43;;;19.30;99.90;;;;;;4997881;28;20049;-67
2023/08/03 09:42:47;;;;;;;0.03;0.03;;;19.30;99.90;;;;;;4997942;28;20030;-66
2023/08/03 09:45:12;;;;;;;1.27;0.20;;;19.40;99.90;;;;;;5013481;28;20030;-65
2023/08/03 09:47:39;;;;;;;0.20;0.13;;;19.40;99.90;;;;;;5014090;28;20018;-65
2023/08/03 09:50:06;;;;;;;0.38;0.22;;;19.40;99.90;;;;;;4996721;28;20030;-66
2023/08/03 09:52:34;;;;;;;0.30;0.30;;;19.40;99.90;;;;;;5013957;28;20030;-66
2023/08/03 09:55:06;;;;;;;0.82;0.20;;;19.50;99.90;;;;;;5013181;28;20054;-66
2023/08/03 09:57:39;;;;;;;0.32;0.15;;;19.60;99.90;;;;;;4997576;28;20097;-66
2023/08/03 10:00:06;;;;;;;0.30;0.17;;;19.70;99.90;;;;;;4997298;28;20062;-66
2023/08/03 10:02:39;;;;;;;0.10;0.10;;;19.90;99.90;;;;;;5012989;28;20058;-66
2023/08/03 10:05:09;;;;;;;0.30;0.13;;;20.00;99.90;;;;;;4997480;28;20085;-65
2023/08/03 10:07:45;;;;;;;0.30;0.30;;;20.20;99.90;;;;;;5012935;28;20030;-65
2023/08/03 10:10:13;;;;;;;0.20;0.20;;;20.30;99.90;;;;;;5012947;28;20061;-65
2023/08/03 10:12:44;;;;;;;1.02;0.30;;;20.30;99.90;;;;;;4996510;28;20026;-65
2023/08/03 10:15:12;;;;;;;0.10;0.10;;;20.40;99.90;;;;;;4997495;28;20022;-66
2023/08/03 10:17:38;;;;;;;1.80;1.23;;;20.40;99.90;;;;;;4997427;28;20031;-65
2023/08/03 10:20:06;;;;;;;0.82;0.25;;;20.40;99.90;;;;;;5012877;28;20038;-66
2023/08/03 10:22:31;;;;;;;1.95;0.10;;;20.40;99.90;;;;;;5012754;28;20030;-66
2023/08/03 10:25:17;;;;;;;0.98;0.52;;;20.50;99.90;;;;;;4997313;28;20030;-65
2023/08/03 10:28:13;;;;;;;1.13;0.10;;;20.50;99.90;;;;;;4996528;28;20029;-65
2023/08/03 10:31:01;;;;;;;0.70;0.20;;;20.30;99.90;;;;;;4997934;28;20021;-66
2023/08/03 10:33:51;;;;;;;1.75;0.32;;;20.20;99.90;;;;;;5001305;28;20026;-65
2023/08/03 10:36:34;;;;;;;0.38;0.30;;;20.20;99.90;;;;;;5001170;28;20022;-66
2023/08/03 10:39:16;;;;;;;2.42;0.30;;;20.10;99.90;;;;;;5016617;28;20114;-66
2023/08/03 10:41:44;;;;;;;0.70;0.30;;;20.10;99.90;;;;;;5017238;28;20101;-65
2023/08/03 10:44:13;;;;;;;1.60;0.90;;;20.00;99.90;;;;;;5000191;28;20030;-65
2023/08/03 10:46:50;;;;;;;3.13;0.65;;;20.10;99.90;;;;;;5001642;28;20058;-66
2023/08/03 10:49:18;;;;;;;8.60;2.35;;;20.10;99.90;;;;;;5017010;28;20054;-66
2023/08/03 10:51:45;;;;;;;2.00;0.55;;;20.20;99.90;;;;;;5001199;28;20054;-66
2023/08/03 10:54:10;;;;;;;2.83;0.60;;;20.30;99.90;;;;;;5000810;28;20038;-65
2023/08/03 10:56:36;;;;;;;1.85;0.77;;;20.30;99.90;;;;;;5000774;28;20060;-65
2023/08/03 10:59:03;;;;;;;1.63;0.45;;;20.30;99.90;;;;;;5016506;28;20023;-65
2023/08/03 11:01:29;;;;;;;3.55;0.60;;;20.30;99.90;;;;;;5000760;28;20023;-65
2023/08/03 11:03:55;;;;;;;0.75;0.43;;;20.30;99.90;;;;;;5016791;28;20037;-65
2023/08/03 11:06:22;;;;;;;0.63;0.25;;;20.30;99.90;;;;;;5016982;28;20033;-65
2023/08/03 11:08:47;;;;;;;0.40;0.30;;;20.30;99.90;;;;;;5015870;28;20080;-65
2023/08/03 11:11:21;;;;;;;0.43;0.10;;;20.40;99.90;;;;;;5016145;28;20120;-66
2023/08/03 11:13:47;;;;;;;1.08;0.40;;;20.30;99.90;;;;;;5016668;28;20022;-66
2023/08/03 11:16:18;;;;;;;1.35;0.40;;;20.30;99.90;;;;;;5016788;28;20038;-66
2023/08/03 11:18:48;;;;;;;1.00;0.50;;;20.20;99.90;;;;;;4999500;28;20043;-67
2023/08/03 11:21:13;;;;;;;1.98;0.85;;;20.20;99.90;;;;;;5040758;23;20065;-69
2023/08/03 11:23:39;;;;;;;0.47;0.47;;;20.20;99.90;;;;;;5020282;28;20030;-69
2023/08/03 11:26:07;;;;;;;0.20;0.20;;;20.10;99.90;;;;;;5019434;28;20088;-69
2023/08/03 11:28:42;;;;;;;4.32;0.40;;;20.10;99.90;;;;;;5019891;28;20120;-69
2023/08/03 11:31:18;;;;;;;1.60;0.40;;;20.10;99.90;;;;;;5018835;28;20076;-69
2023/08/03 11:33:49;;;;;;;0.68;0.25;;;20.10;99.90;;;;;;5019598;28;20067;-69
2023/08/03 11:36:16;;;;;;;0.63;0.40;;;20.20;99.90;;;;;;5019387;28;20108;-69
2023/08/03 11:38:42;;;;;;;0.68;0.40;;;20.30;99.90;;;;;;5018802;28;20045;-69
2023/08/03 11:41:07;;;;;;;1.02;0.60;;;20.30;99.90;;;;;;5019491;28;20026;-69
2023/08/03 11:43:33;;;;;;;2.58;0.38;;;20.40;99.90;;;;;;5018591;28;20050;-69
2023/08/03 11:45:59;;;;;;;0.68;0.32;;;20.40;99.90;;;;;;5018840;28;20029;-69
2023/08/03 11:48:26;;;;;;;0.10;0.10;;;20.30;99.90;;;;;;5018873;28;20034;-69
2023/08/03 11:50:54;;;;;;;1.30;0.20;;;20.40;99.90;;;;;;5018899;28;20025;-69
2023/08/03 11:53:31;;;;;;;2.28;0.28;;;20.30;99.90;;;;;;5019490;28;20018;-69
2023/08/03 11:56:00;;;;;;;0.30;0.30;;;20.50;99.90;;;;;;5018545;28;20068;-69
2023/08/03 11:58:27;;;;;;;0.60;0.20;;;20.50;99.90;;;;;;5018406;28;20029;-69
2023/08/03 12:01:00;;;;;;;0.38;0.20;;;20.60;99.90;;;;;;5019410;28;20029;-69
2023/08/03 12:03:34;;;;;;;0.40;0.38;;;20.60;99.90;;;;;;5018362;28;20056;-69
2023/08/03 12:06:05;;;;;;;3.30;0.43;;;20.60;99.90;;;;;;5018249;28;20109;-69
2023/08/03 12:08:39;;;;;;;0.47;0.22;;;20.50;99.90;;;;;;5019525;28;20072;-69
2023/08/03 12:11:05;;;;;;;2.78;0.43;;;20.50;99.90;;;;;;5018059;28;20030;-69
2023/08/03 12:13:30;;;;;;;0.28;0.22;;;20.50;99.90;;;;;;5018361;28;20041;-69
2023/08/03 12:15:56;;;;;;;2.08;0.25;;;20.40;99.90;;;;;;5018218;28;20022;-69
2023/08/03 12:18:22;;;;;;;1.50;0.20;;;20.40;99.90;;;;;;5018226;28;20032;-69
2023/08/03 12:20:49;;;;;;;0.55;0.20;;;20.30;99.90;;;;;;5018162;28;20030;-69
2023/08/03 12:23:15;;;;;;;0.20;0.17;;;20.30;99.90;;;;;;5018870;28;20202;-69
2023/08/03 12:25:41;;;;;;;0.25;0.20;;;20.30;99.90;;;;;;5017797;28;20022;-69
2023/08/03 12:28:06;;;;;;;1.20;0.40;;;20.30;99.90;;;;;;5017847;28;20081;-69
2023/08/03 12:30:32;;;;;;;0.22;0.20;;;20.20;99.90;;;;;;5018046;28;20030;-69
2023/08/03 12:32:57;;;;;;;0.47;0.28;;;20.20;99.90;;;;;;5018478;28;20033;-69
2023/08/03 12:35:23;;;;;;;2.42;0.50;;;20.20;99.90;;;;;;5019125;28;20022;-69
2023/08/03 12:37:48;;;;;;;2.95;0.38;;;20.30;99.90;;;;;;5018589;28;20030;-69
2023/08/03 12:40:14;;;;;;;2.88;0.45;;;20.30;99.90;;;;;;5017598;28;20112;-69
2023/08/03 12:42:40;;;;;;;0.75;0.28;;;20.20;99.90;;;;;;5017709;28;20134;-69
2023/08/03 12:45:06;;;;;;;0.30;0.20;;;20.30;99.90;;;;;;5017829;28;20028;-69
2023/08/03 12:47:31;;;;;;;0.20;0.20;;;20.40;99.90;;;;;;5017870;28;20029;-69